Erie, PA

1:25 PM EDT on August 23, 2014 (GMT -0400)
Chautauqua County-Jamestown | Change Station
CLOSE
Current Station
Airport
Location: Jamestown,
Elevation: 1722 ft
Nearby Weather Stations
Active Advisory: Coastal Hazard Statement

Elev 1722 ft 42.15 °N, 79.26 °W | Updated 10 minutes ago

Scattered Clouds
Scattered Clouds
73 °F
Feels Like 73 °F
N
8
Wind Variable Wind from ENE

Today
High -- | Low -- °F
--% Chance of Precip.
Yesterday
High -- | Low -- °F
Precip. -- in
6:36 AM 8:08 PM
Waning Crescent, 3% visible
Pressure 30.07 in
Visibility 10.0 miles
Clouds Few 3000 ft
Scattered Clouds 4000 ft
Scattered Clouds 5000 ft
Dew Point 64 °F
Humidity 73%
Rainfall 0.00 in
Snow Depth Not available.
UV 8 out of 12
Pollen 9.90 out of 12
Air Quality Not available.
Flu Activity Not available.
METAR KJHW 231715Z AUTO 06007KT 10SM FEW030 SCT040 SCT050 23/18 A3007 RMK AO1

More Conditions Fewer Conditions

Pressure 30.07 in
Visibility 10.0 miles
Clouds Few 3000 ft
Scattered Clouds 4000 ft
Scattered Clouds 5000 ft
Dew Point 64 °F
Humidity 73%
Rainfall 0.00 in
Snow Depth Not available.
UV 8 out of 12
Pollen 9.90 out of 12
Air Quality Not available.
Flu Activity Not available.
METAR KJHW 231715Z AUTO 06007KT 10SM FEW030 SCT040 SCT050 23/18 A3007 RMK AO1

More Conditions Fewer Conditions

10-Day Weather Forecast

Almanac

Astronomy

Aug. 23, 2014 Rise Set
Actual Time 6:36 AM EDT 8:08 PM EDT
Civil Twilight 6:06 AM EDT 8:38 PM EDT
Nautical Twilight 5:31 AM EDT 9:13 PM EDT
Astronomical Twilight 4:53 AM EDT 9:51 PM EDT
Moon 4:50 AM EDT 6:52 PM EDT
Length of Visible Light 14h 31m
Length of Day
13h 32m
Tomorrow will be 2m 38s shorter.
Waning Crescent, 3% of the Moon is Illuminated
Today
Waning Crescent
Aug 25
New
Sep 2
First Quarter
Sep 8
Full
Sep 15
Last Quarter

Today's Extremes

State Highs State Lows

Community

WunderPhotos

Upload Photos

1,746,534 photos uploaded!

WunderBlogs® & News

By Dr. Jeff Masters
Director of Meteorology, Weather Underground
By Kari Strenfel
Meteorologist, Weather Underground
By Christopher C. Burt
Weather Historian, Weather Underground
August 23, 2014
August 23, 2014
August 23, 2014

Nearby

Snow Depth

Station Depth Elevation
No new snow has been reported.

Earthquake Activity

City Distance Mag. Time & Date
No recent earthquake activity has been reported nearby.
Minimum magnitude displayed is 2.5.

Coastal Water Temperatures

Place Temperature
Fairport, OH 73.9 °F
Buffalo, NY 72.0 °F

Nearby Weather Stations